Laketon, IN (46943)

10:56 AM EST on February 09, 2016 (GMT -0500)
NW North Manchester | | Change Station
CLOSE
Current Station
Personal Weather Station
Location: North Manchester, IN
Elevation: 801 ft
Nearby Weather Stations

Elev 801 ft 41.01 °N, 85.79 °W | Updated 9 minutes ago

Overcast
Overcast
25.5 °F
Feels Like 26 °F
N
2.7
Wind Variable Wind from West

Today
High -- | Low -- °F
--% Chance of Precip.
Yesterday
High -- | Low -- °F
Precip. -- in
Pressure 29.73 in
Visibility 7.0 miles
Clouds Overcast 1200 ft
Windchill 26 °F
Dew Point 20 °F
Humidity 79%
Rainfall 0.00 in
Snow Depth Not available.
7:45 AM 6:09 PM
New Moon, 1% visible
METAR KRCR 091535Z AUTO 27010G16KT 7SM OVC012 M04/M08 A2973 RMK AO2
Pressure 29.73 in
Visibility 7.0 miles
Clouds Overcast 1200 ft
Windchill 26 °F
Dew Point 20 °F
Humidity 79%
Rainfall 0.00 in
Snow Depth Not available.
7:45 AM 6:09 PM
New Moon, 1% visible
METAR KRCR 091535Z AUTO 27010G16KT 7SM OVC012 M04/M08 A2973 RMK AO2

10-Day Weather Forecast

Almanac

Astronomy

Feb. 09, 2016 Rise Set
Actual Time
Civil Twilight
Nautical Twilight
Astronomical Twilight
Moon
Length of Visible Light
Length of Day
Tomorrow will be .
, % of the Moon is Illuminated

Today's Extremes

State Highs State Lows

Community

WunderPhotos

Upload Photos

1,891,628 photos uploaded!

WunderBlog® & News

Nearby

Air Quality

  Air Quality AQ Index Pollutant
Not available.

Snow Depth

Station Depth Elevation

Earthquake Activity

City Distance Mag. Time & Date
Minimum magnitude displayed is 2.5.

Coastal Water Temperatures

Place Temperature

Stations

Nearby Weather Stations

Station Location Temp. Windchill Dew Point Humidity Wind Precip. Elev Updated Type
                   

Watches & Warnings

There are currently no watches in effect.